Time;durP1;ratioP1;P1;durP2;ratioP2;P2;SDS_P1;SDS_P2;PMS_P1;PMS_P2;Temp;Humidity;BMP_temperature;BMP_pressure;BME280_temperature;BME280_humidity;BME280_pressure;Samples;Min_cycle;Max_cycle;Signal;HPM_P1;HPM_P2
2022/08/26 00:01:36;;;;;;;1.77;0.50;;;12.90;99.90;;;;;;5033772;28;20095;-79
2022/08/26 00:04:04;;;;;;;1.50;0.60;;;13.00;99.90;;;;;;5033701;28;20030;-74
2022/08/26 00:06:32;;;;;;;2.70;0.88;;;13.10;99.90;;;;;;5033585;28;20035;-80
2022/08/26 00:09:00;;;;;;;2.30;0.60;;;13.10;99.90;;;;;;5033255;28;20014;-80
2022/08/26 00:11:28;;;;;;;1.98;0.93;;;13.20;99.90;;;;;;5033871;28;20459;-79
2022/08/26 00:13:58;;;;;;;1.70;0.50;;;13.20;99.90;;;;;;5033176;28;20024;-78
2022/08/26 00:16:28;;;;;;;3.50;0.95;;;13.30;99.90;;;;;;5032696;28;20441;-77
2022/08/26 00:18:56;;;;;;;1.55;0.63;;;13.30;99.90;;;;;;5032168;28;20049;-79
2022/08/26 00:21:24;;;;;;;2.28;0.63;;;13.30;99.90;;;;;;5033079;28;20355;-79
2022/08/26 00:23:52;;;;;;;1.33;0.50;;;13.40;99.90;;;;;;5032693;28;20021;-76
2022/08/26 00:26:19;;;;;;;3.05;0.70;;;13.50;99.90;;;;;;5032392;28;20053;-70
2022/08/26 00:28:48;;;;;;;1.58;0.65;;;13.50;99.90;;;;;;5032817;28;20107;-79
2022/08/26 00:31:16;;;;;;;4.55;0.63;;;13.50;99.90;;;;;;5032691;28;20407;-78
2022/08/26 00:33:44;;;;;;;3.53;0.77;;;13.50;99.90;;;;;;5026602;28;20028;-78
2022/08/26 00:36:12;;;;;;;1.27;0.52;;;13.50;99.90;;;;;;5032504;28;20389;-77
2022/08/26 00:38:40;;;;;;;7.22;0.80;;;13.40;99.90;;;;;;5032785;28;20459;-78
2022/08/26 00:41:07;;;;;;;3.25;0.90;;;13.40;99.90;;;;;;5032773;28;20029;-77
2022/08/26 00:43:36;;;;;;;6.13;0.63;;;13.40;99.90;;;;;;5032470;28;20068;-78
2022/08/26 00:46:22;;;;;;;2.15;0.80;;;13.40;99.90;;;;;;5030819;28;20627;-83
2022/08/26 00:48:55;;;;;;;0.98;0.35;;;13.50;99.90;;;;;;5032038;28;20029;-83
2022/08/26 00:51:26;;;;;;;2.38;1.10;;;13.50;99.90;;;;;;5031793;28;20108;-87
2022/08/26 00:54:04;;;;;;;6.43;1.10;;;13.50;99.90;;;;;;5033451;28;20018;-83
2022/08/26 00:57:01;;;;;;;3.70;0.57;;;13.60;99.90;;;;;;5031761;28;20435;-82
2022/08/26 00:59:30;;;;;;;1.88;0.60;;;13.60;99.90;;;;;;5028661;28;20105;-80
2022/08/26 01:01:58;;;;;;;2.63;1.08;;;13.60;99.90;;;;;;5029635;28;20128;-79
2022/08/26 01:04:26;;;;;;;2.20;0.82;;;13.60;99.90;;;;;;5031979;28;20036;-79
2022/08/26 01:06:56;;;;;;;1.33;0.68;;;13.70;99.90;;;;;;5027298;28;20021;-77
2022/08/26 01:09:24;;;;;;;1.73;0.80;;;13.70;99.90;;;;;;5035086;28;20021;-80
2022/08/26 01:11:55;;;;;;;4.32;0.75;;;13.60;99.90;;;;;;5038314;28;20041;-79
2022/08/26 01:14:26;;;;;;;2.20;0.55;;;13.70;99.90;;;;;;5036550;28;20441;-79
2022/08/26 01:16:53;;;;;;;4.68;0.77;;;13.70;99.90;;;;;;5034484;28;20029;-77
2022/08/26 01:19:27;;;;;;;2.85;0.82;;;13.80;99.90;;;;;;5030515;28;20025;-77
2022/08/26 01:22:18;;;;;;;2.83;0.95;;;13.80;99.90;;;;;;5028752;28;20091;-72
2022/08/26 01:24:48;;;;;;;2.30;0.88;;;13.90;99.90;;;;;;5008954;28;20022;-75
2022/08/26 01:27:20;;;;;;;1.35;0.40;;;13.80;99.90;;;;;;5013812;28;20398;-70
2022/08/26 01:29:50;;;;;;;1.33;0.57;;;13.80;99.90;;;;;;5030953;28;20084;-70
2022/08/26 01:32:21;;;;;;;6.18;1.00;;;13.80;99.90;;;;;;5031192;28;20029;-77
2022/08/26 01:34:49;;;;;;;3.25;1.23;;;13.80;99.90;;;;;;5032065;28;20033;-69
2022/08/26 01:37:21;;;;;;;7.15;0.90;;;13.80;99.90;;;;;;5033724;28;20080;-69
2022/08/26 01:39:52;;;;;;;2.25;0.73;;;13.80;99.90;;;;;;5033124;28;20025;-69
2022/08/26 01:42:23;;;;;;;2.33;0.98;;;13.90;99.90;;;;;;5030679;28;20028;-70
2022/08/26 01:45:02;;;;;;;2.58;1.13;;;13.90;99.90;;;;;;5048936;28;20035;-69
2022/08/26 01:47:32;;;;;;;3.75;1.33;;;13.90;99.90;;;;;;5038586;28;20071;-69
2022/08/26 01:50:04;;;;;;;1.80;0.77;;;13.90;99.90;;;;;;5042498;28;20100;-78
2022/08/26 01:52:35;;;;;;;5.93;1.23;;;13.90;99.90;;;;;;5039573;28;20053;-78
2022/08/26 01:55:07;;;;;;;4.03;0.68;;;13.90;99.90;;;;;;5051739;28;20037;-79
2022/08/26 01:57:36;;;;;;;2.20;0.70;;;13.90;99.90;;;;;;5044967;28;20017;-78
2022/08/26 02:00:08;;;;;;;4.68;0.82;;;13.90;99.90;;;;;;5047100;28;20026;-77
2022/08/26 02:02:36;;;;;;;4.63;0.70;;;13.80;99.90;;;;;;5051814;28;20060;-81
2022/08/26 02:05:06;;;;;;;2.25;1.02;;;13.80;99.90;;;;;;5039459;28;20025;-72
2022/08/26 02:07:34;;;;;;;3.65;1.00;;;13.80;99.90;;;;;;5048628;28;20498;-81
2022/08/26 02:10:03;;;;;;;3.67;0.93;;;13.80;99.90;;;;;;5046634;28;20036;-78
2022/08/26 02:12:32;;;;;;;2.47;0.60;;;13.80;99.90;;;;;;5042040;28;20018;-79
2022/08/26 02:15:04;;;;;;;3.65;0.70;;;13.90;99.90;;;;;;5052600;28;20033;-77
2022/08/26 02:17:42;;;;;;;3.08;0.88;;;13.90;99.90;;;;;;5042546;28;20024;-79
2022/08/26 02:20:16;;;;;;;3.47;0.60;;;13.90;99.90;;;;;;5044669;28;20028;-78
2022/08/26 02:22:44;;;;;;;3.45;0.50;;;13.90;99.90;;;;;;5050834;28;20032;-80
2022/08/26 02:25:21;;;;;;;1.67;0.45;;;13.90;99.90;;;;;;5023524;28;20029;-80
2022/08/26 02:27:49;;;;;;;1.30;0.60;;;13.90;99.90;;;;;;5047346;28;20499;-76
2022/08/26 02:30:21;;;;;;;2.70;0.63;;;13.90;99.90;;;;;;5048480;28;20035;-80
2022/08/26 02:32:50;;;;;;;3.83;0.57;;;14.00;99.90;;;;;;5039288;28;20494;-78
2022/08/26 02:35:20;;;;;;;1.15;0.50;;;14.00;99.90;;;;;;5049508;28;20047;-79
2022/08/26 02:37:49;;;;;;;1.92;0.63;;;14.10;99.90;;;;;;5031371;28;20017;-78
2022/08/26 02:40:21;;;;;;;1.73;0.45;;;14.10;99.90;;;;;;5048310;28;20086;-73
2022/08/26 02:42:50;;;;;;;1.92;0.77;;;14.10;99.90;;;;;;5038691;28;20025;-74
2022/08/26 02:45:18;;;;;;;3.60;0.75;;;14.10;99.90;;;;;;5033478;28;20025;-77
2022/08/26 02:47:46;;;;;;;2.28;0.45;;;14.20;99.90;;;;;;5035944;28;20088;-76
2022/08/26 02:50:15;;;;;;;3.00;1.20;;;14.20;99.90;;;;;;5035767;28;20029;-74
2022/08/26 02:52:42;;;;;;;2.58;1.00;;;14.20;99.90;;;;;;5035884;28;20096;-79
2022/08/26 02:55:10;;;;;;;2.78;0.80;;;14.20;99.90;;;;;;5051792;28;20030;-77
2022/08/26 02:57:38;;;;;;;3.58;0.70;;;14.20;99.90;;;;;;5042575;28;20025;-78
2022/08/26 03:00:09;;;;;;;2.95;0.73;;;14.30;99.90;;;;;;5044651;28;20036;-78
2022/08/26 03:02:37;;;;;;;2.15;0.80;;;14.30;99.90;;;;;;5050328;28;20567;-78
2022/08/26 03:05:06;;;;;;;2.28;0.95;;;14.40;99.90;;;;;;5038783;28;20378;-79
2022/08/26 03:07:38;;;;;;;2.50;0.60;;;14.40;99.90;;;;;;5047101;28;20049;-78
2022/08/26 03:10:07;;;;;;;3.97;0.75;;;14.50;99.90;;;;;;5046170;28;20446;-78
2022/08/26 03:12:35;;;;;;;3.10;0.45;;;14.60;99.90;;;;;;5040332;28;20028;-79
2022/08/26 03:15:04;;;;;;;2.60;0.57;;;14.60;99.90;;;;;;5051530;28;20037;-79
2022/08/26 03:17:32;;;;;;;4.30;0.82;;;14.60;99.90;;;;;;5041499;28;20021;-75
2022/08/26 03:20:00;;;;;;;2.45;0.60;;;14.50;99.90;;;;;;5027135;28;20453;-76
2022/08/26 03:22:28;;;;;;;1.25;0.43;;;14.50;99.90;;;;;;5048942;28;20055;-79
2022/08/26 03:24:56;;;;;;;4.53;0.60;;;14.50;99.90;;;;;;5037769;28;20497;-78
2022/08/26 03:27:23;;;;;;;4.40;0.63;;;14.50;99.90;;;;;;5043569;28;20028;-78
2022/08/26 03:32:37;;;;;;;8.32;0.77;;;14.40;99.90;;;;;;5048815;28;20031;-75
2022/08/26 03:35:05;;;;;;;3.55;1.48;;;14.40;99.90;;;;;;5037974;28;20034;-79
2022/08/26 03:37:32;;;;;;;4.22;2.00;;;14.30;99.90;;;;;;5046158;28;20025;-78
2022/08/26 03:40:00;;;;;;;3.88;0.93;;;14.30;99.90;;;;;;5032841;28;20041;-81
2022/08/26 03:42:28;;;;;;;7.15;1.10;;;14.40;99.90;;;;;;5048108;28;20040;-78
2022/08/26 03:44:56;;;;;;;2.05;0.90;;;14.40;99.90;;;;;;5037944;28;20025;-76
2022/08/26 03:47:23;;;;;;;5.47;0.85;;;14.40;99.90;;;;;;5049114;28;20022;-77
2022/08/26 03:49:51;;;;;;;5.63;1.38;;;14.50;99.90;;;;;;5042970;28;20036;-77
2022/08/26 03:52:19;;;;;;;2.40;0.70;;;14.50;99.90;;;;;;5041727;28;20023;-79
2022/08/26 03:54:46;;;;;;;3.88;0.60;;;14.50;99.90;;;;;;5050549;28;20447;-80
2022/08/26 03:57:14;;;;;;;2.42;0.60;;;14.50;99.90;;;;;;5021873;28;20021;-78
2022/08/26 03:59:42;;;;;;;0.63;0.40;;;14.50;99.90;;;;;;5045738;28;20080;-79
2022/08/26 04:02:10;;;;;;;11.10;1.52;;;14.40;99.90;;;;;;5034192;28;20553;-77
2022/08/26 04:04:37;;;;;;;3.75;0.80;;;14.40;99.90;;;;;;5049568;28;20036;-78
2022/08/26 04:07:08;;;;;;;2.38;0.68;;;14.40;99.90;;;;;;5037597;28;20071;-79
2022/08/26 04:09:35;;;;;;;5.25;0.77;;;14.40;99.90;;;;;;5046539;28;20505;-78
2022/08/26 04:12:03;;;;;;;3.50;0.70;;;14.40;99.90;;;;;;5040807;28;20032;-78
2022/08/26 04:14:31;;;;;;;2.95;0.75;;;14.50;99.90;;;;;;5048250;28;20545;-79
2022/08/26 04:16:58;;;;;;;3.65;0.85;;;14.50;99.90;;;;;;5037367;28;20022;-76
2022/08/26 04:19:25;;;;;;;8.55;1.35;;;14.50;99.90;;;;;;5047838;28;20021;-80
2022/08/26 04:21:53;;;;;;;2.95;1.00;;;14.60;99.90;;;;;;5035488;28;20022;-80
2022/08/26 04:24:23;;;;;;;4.40;0.90;;;14.70;99.90;;;;;;5035354;28;20675;-77
2022/08/26 04:26:51;;;;;;;1.77;0.57;;;14.80;99.90;;;;;;5033309;28;20391;-77
2022/08/26 04:29:25;;;;;;;6.78;0.85;;;14.90;99.90;;;;;;5032224;28;20025;-75
2022/08/26 04:31:54;;;;;;;3.75;1.30;;;14.90;99.90;;;;;;5033920;28;20033;-76
2022/08/26 04:34:23;;;;;;;3.05;1.20;;;14.80;99.90;;;;;;5016056;28;20037;-76
2022/08/26 04:36:51;;;;;;;9.93;1.23;;;14.60;99.90;;;;;;5034267;28;20114;-73
2022/08/26 04:39:19;;;;;;;2.83;0.70;;;14.50;99.90;;;;;;5034210;28;20025;-72
2022/08/26 04:41:47;;;;;;;7.70;0.98;;;14.40;99.90;;;;;;5036606;28;20027;-72
2022/08/26 04:44:15;;;;;;;1.85;0.90;;;14.40;99.90;;;;;;5033711;28;20462;-74
2022/08/26 04:46:43;;;;;;;5.22;0.85;;;14.40;99.90;;;;;;5035438;28;20026;-76
2022/08/26 04:49:11;;;;;;;2.45;0.95;;;14.40;99.90;;;;;;5035688;28;20061;-73
2022/08/26 04:51:39;;;;;;;3.13;0.93;;;14.40;99.90;;;;;;5033483;28;20105;-78
2022/08/26 04:54:07;;;;;;;2.25;0.55;;;14.30;99.90;;;;;;5033345;28;20057;-77
2022/08/26 04:56:40;;;;;;;1.65;0.73;;;14.40;99.90;;;;;;5032027;28;20071;-77
2022/08/26 04:59:10;;;;;;;1.58;0.55;;;14.40;99.90;;;;;;5025090;28;20061;-77
2022/08/26 05:01:42;;;;;;;2.85;1.00;;;14.40;99.90;;;;;;5032609;28;20036;-78
2022/08/26 05:04:10;;;;;;;11.13;1.70;;;14.30;99.90;;;;;;5033329;28;20352;-78
2022/08/26 05:06:37;;;;;;;6.70;1.13;;;14.30;99.90;;;;;;5030863;28;20029;-78
2022/08/26 05:09:05;;;;;;;3.53;0.85;;;14.30;99.90;;;;;;5033042;28;20461;-75
2022/08/26 05:11:33;;;;;;;6.07;0.88;;;14.30;99.90;;;;;;5017520;28;20386;-73
2022/08/26 05:14:00;;;;;;;2.33;1.05;;;14.20;99.90;;;;;;5032824;28;20039;-80
2022/08/26 05:16:29;;;;;;;4.75;1.05;;;14.20;99.90;;;;;;5032526;28;20033;-79
2022/08/26 05:18:56;;;;;;;2.42;0.88;;;14.10;99.90;;;;;;5029402;28;20021;-73
2022/08/26 05:21:27;;;;;;;7.47;0.70;;;14.10;99.90;;;;;;5030249;28;20040;-78
2022/08/26 05:23:55;;;;;;;4.38;0.90;;;14.10;99.90;;;;;;5032628;28;20088;-71
2022/08/26 05:26:26;;;;;;;7.53;1.35;;;14.00;99.90;;;;;;5035271;28;20021;-79
2022/08/26 05:28:54;;;;;;;1.90;0.60;;;14.00;99.90;;;;;;5016159;28;20056;-73
2022/08/26 05:31:25;;;;;;;4.53;1.33;;;14.00;99.90;;;;;;5033118;28;20108;-74
2022/08/26 05:33:53;;;;;;;3.13;1.15;;;14.00;99.90;;;;;;5043954;28;20020;-76
2022/08/26 05:36:23;;;;;;;6.95;1.10;;;14.00;99.90;;;;;;5034119;28;20030;-72
2022/08/26 05:38:50;;;;;;;7.68;0.85;;;13.90;99.90;;;;;;5032062;28;20470;-71
2022/08/26 05:41:33;;;;;;;2.83;0.65;;;13.90;99.90;;;;;;5014091;28;20025;-72
2022/08/26 05:44:01;;;;;;;6.72;1.40;;;13.90;99.90;;;;;;5033900;28;20013;-79
2022/08/26 05:46:30;;;;;;;7.82;1.15;;;13.90;99.90;;;;;;5034999;28;20032;-79
2022/08/26 05:48:58;;;;;;;1.67;1.35;;;13.90;99.90;;;;;;5031760;28;20096;-80
2022/08/26 05:51:26;;;;;;;3.72;0.80;;;13.90;99.90;;;;;;5031000;28;20049;-81
2022/08/26 05:53:55;;;;;;;1.20;0.68;;;13.90;99.90;;;;;;5031682;28;20026;-76
2022/08/26 05:56:26;;;;;;;2.30;0.68;;;13.90;99.90;;;;;;5032232;28;20033;-79
2022/08/26 05:58:55;;;;;;;2.67;0.50;;;14.00;99.90;;;;;;5014395;28;20466;-75
2022/08/26 06:01:25;;;;;;;3.47;0.65;;;14.00;99.90;;;;;;5031883;28;20060;-80
2022/08/26 06:03:59;;;;;;;2.67;0.70;;;14.00;99.90;;;;;;5032452;28;20046;-81
2022/08/26 06:06:32;;;;;;;3.63;0.60;;;14.00;99.90;;;;;;5029761;28;20014;-82
2022/08/26 06:09:01;;;;;;;1.88;0.50;;;14.00;99.90;;;;;;5030261;28;20021;-80
2022/08/26 06:11:31;;;;;;;2.97;0.63;;;13.90;99.90;;;;;;5025643;28;20026;-78
2022/08/26 06:14:01;;;;;;;3.75;1.00;;;14.00;99.90;;;;;;5021075;28;20033;-78
2022/08/26 06:16:32;;;;;;;5.75;0.65;;;13.90;99.90;;;;;;5038305;28;20048;-79
2022/08/26 06:19:01;;;;;;;1.80;0.40;;;13.90;99.90;;;;;;5036939;28;20443;-79
2022/08/26 06:21:31;;;;;;;5.13;0.85;;;13.90;99.90;;;;;;5038234;28;20017;-80
2022/08/26 06:26:52;;;;;;;1.45;0.40;;;13.80;99.90;;;;;;5031993;28;20072;-81
2022/08/26 06:29:22;;;;;;;5.28;1.00;;;13.80;99.90;;;;;;5044707;28;20021;-80
2022/08/26 06:31:49;;;;;;;3.72;1.27;;;13.70;99.90;;;;;;5031275;28;20021;-80
2022/08/26 06:34:17;;;;;;;2.88;0.80;;;13.70;99.90;;;;;;5031196;28;20034;-80
2022/08/26 06:36:46;;;;;;;2.67;0.60;;;13.60;99.90;;;;;;5031611;28;20421;-79
2022/08/26 06:39:16;;;;;;;1.00;0.50;;;13.60;99.90;;;;;;5031724;28;20021;-77
2022/08/26 06:41:44;;;;;;;4.72;1.55;;;13.50;99.90;;;;;;5031106;28;20010;-77
2022/08/26 06:44:14;;;;;;;6.32;1.00;;;13.50;99.90;;;;;;5034881;28;20057;-77
2022/08/26 06:46:42;;;;;;;1.90;0.57;;;13.40;99.90;;;;;;5016854;28;20025;-73
2022/08/26 06:49:11;;;;;;;5.28;0.98;;;13.40;99.90;;;;;;5037629;28;20382;-78
2022/08/26 06:51:40;;;;;;;5.18;0.70;;;13.30;99.90;;;;;;5023901;28;20390;-76
2022/08/26 06:54:10;;;;;;;2.63;0.73;;;13.30;99.90;;;;;;5033573;28;20025;-74
2022/08/26 06:56:41;;;;;;;1.40;0.70;;;13.20;99.90;;;;;;5051843;28;20405;-77
2022/08/26 06:59:11;;;;;;;2.25;0.60;;;13.20;99.90;;;;;;5045233;28;20033;-76
2022/08/26 07:01:45;;;;;;;4.47;0.70;;;13.20;99.90;;;;;;5045078;28;20084;-73
2022/08/26 07:04:15;;;;;;;2.20;0.77;;;13.10;99.90;;;;;;5034928;28;20025;-79
2022/08/26 07:06:47;;;;;;;3.15;0.70;;;13.10;99.90;;;;;;5046363;28;20021;-73
2022/08/26 07:09:15;;;;;;;2.83;0.82;;;13.10;99.90;;;;;;5043626;28;20025;-77
2022/08/26 07:11:43;;;;;;;6.47;0.93;;;13.00;99.90;;;;;;5039936;28;20024;-76
2022/08/26 07:14:11;;;;;;;2.33;0.80;;;13.00;99.90;;;;;;5035411;28;20394;-73
2022/08/26 07:16:40;;;;;;;4.53;0.95;;;13.00;99.90;;;;;;5038218;28;20025;-75
2022/08/26 07:19:07;;;;;;;4.47;1.15;;;12.90;99.90;;;;;;5037039;28;20025;-74
2022/08/26 07:21:35;;;;;;;2.17;0.90;;;12.90;99.90;;;;;;5044770;28;20020;-76
2022/08/26 07:24:03;;;;;;;2.92;0.65;;;12.80;99.90;;;;;;5036722;28;20025;-77
2022/08/26 07:26:30;;;;;;;3.55;0.82;;;12.80;99.90;;;;;;5033862;28;20024;-78
2022/08/26 07:28:59;;;;;;;2.75;0.93;;;12.80;99.90;;;;;;5044944;28;20105;-79
2022/08/26 07:31:29;;;;;;;3.22;1.23;;;12.70;99.90;;;;;;5035572;28;20047;-73
2022/08/26 07:33:57;;;;;;;4.30;1.48;;;12.70;99.90;;;;;;5041747;28;20029;-78
2022/08/26 07:36:25;;;;;;;4.53;0.90;;;12.70;99.90;;;;;;5036150;28;20033;-76
2022/08/26 07:38:53;;;;;;;7.43;1.50;;;12.60;99.90;;;;;;5034635;28;20013;-78
2022/08/26 07:41:25;;;;;;;10.55;1.75;;;12.60;99.90;;;;;;5048929;28;20024;-77
2022/08/26 07:43:53;;;;;;;3.33;1.02;;;12.60;99.90;;;;;;5047178;28;20021;-78
2022/08/26 07:46:20;;;;;;;5.60;1.05;;;12.60;99.90;;;;;;5037305;28;20030;-75
2022/08/26 07:48:49;;;;;;;5.05;1.25;;;12.60;99.90;;;;;;5034670;28;20037;-75
2022/08/26 07:51:24;;;;;;;3.63;1.50;;;12.60;99.90;;;;;;5035179;28;20033;-75
2022/08/26 07:53:53;;;;;;;2.53;1.58;;;12.50;99.90;;;;;;5033209;28;20570;-77
2022/08/26 07:56:21;;;;;;;3.42;1.77;;;12.50;99.90;;;;;;5020359;28;20044;-73
2022/08/26 07:58:50;;;;;;;3.35;1.27;;;12.50;99.90;;;;;;5035578;28;20377;-77
2022/08/26 08:01:17;;;;;;;6.38;1.75;;;12.50;99.90;;;;;;5036597;28;20032;-75
2022/08/26 08:03:44;;;;;;;4.13;1.00;;;12.50;99.90;;;;;;5034449;28;20449;-77
2022/08/26 08:06:12;;;;;;;3.35;0.90;;;12.50;99.90;;;;;;5032948;28;20025;-77
2022/08/26 08:08:40;;;;;;;3.58;1.35;;;12.40;99.90;;;;;;5033849;28;20044;-78
2022/08/26 08:11:07;;;;;;;5.90;1.23;;;12.40;99.90;;;;;;5034309;28;20654;-74
2022/08/26 08:13:36;;;;;;;5.07;1.60;;;12.40;99.90;;;;;;5030939;28;20075;-73
2022/08/26 08:16:04;;;;;;;2.22;0.88;;;12.40;99.90;;;;;;5037820;28;20022;-79
2022/08/26 08:18:32;;;;;;;8.95;1.48;;;12.40;99.90;;;;;;5050151;28;20021;-72
2022/08/26 08:21:02;;;;;;;4.35;1.40;;;12.40;99.90;;;;;;5051282;28;20021;-75
2022/08/26 08:23:30;;;;;;;5.75;1.23;;;12.30;99.90;;;;;;5039288;28;20017;-78
2022/08/26 08:26:05;;;;;;;6.15;1.42;;;12.30;99.90;;;;;;5027644;28;20033;-78
2022/08/26 08:28:33;;;;;;;9.13;1.30;;;12.30;99.90;;;;;;5033274;28;20351;-78
2022/08/26 08:31:00;;;;;;;9.77;1.42;;;12.30;99.90;;;;;;5035035;28;20017;-75
2022/08/26 08:33:31;;;;;;;5.32;1.55;;;12.30;99.90;;;;;;5034080;28;20071;-72
2022/08/26 08:35:59;;;;;;;5.63;1.50;;;12.30;99.90;;;;;;5033283;28;20395;-72
2022/08/26 08:38:28;;;;;;;4.60;1.20;;;12.30;99.90;;;;;;5032705;28;20394;-75
2022/08/26 08:40:55;;;;;;;4.80;1.88;;;12.30;99.90;;;;;;5019486;28;20424;-73
2022/08/26 08:43:40;;;;;;;5.00;1.60;;;12.30;99.90;;;;;;5038524;28;20035;-75
2022/08/26 08:46:15;;;;;;;10.35;1.90;;;12.30;99.90;;;;;;5035837;28;20037;-78
2022/08/26 08:48:53;;;;;;;4.37;1.60;;;12.30;99.90;;;;;;5033304;28;20023;-77
2022/08/26 08:51:42;;;;;;;5.93;1.45;;;12.30;99.90;;;;;;5034381;28;20341;-76
2022/08/26 08:54:10;;;;;;;4.78;1.98;;;12.30;99.90;;;;;;5030835;28;20073;-77
2022/08/26 08:56:52;;;;;;;8.43;2.65;;;12.30;99.90;;;;;;5033179;28;20037;-78
2022/08/26 08:59:25;;;;;;;6.13;1.50;;;12.30;99.90;;;;;;5048151;28;20021;-76
2022/08/26 09:02:05;;;;;;;5.43;2.28;;;12.30;99.90;;;;;;5037830;28;20051;-77
2022/08/26 09:04:56;;;;;;;8.70;1.50;;;12.30;99.90;;;;;;5033791;28;20049;-77
2022/08/26 09:07:43;;;;;;;10.18;1.88;;;12.20;99.90;;;;;;5037697;28;20052;-77
2022/08/26 09:10:35;;;;;;;4.72;1.60;;;12.20;99.90;;;;;;5037470;28;20084;-77
2022/08/26 09:13:11;;;;;;;6.22;1.48;;;12.20;99.90;;;;;;5041888;28;20040;-77
2022/08/26 09:15:57;;;;;;;9.82;2.17;;;12.20;99.90;;;;;;5048521;28;20029;-77
2022/08/26 09:18:36;;;;;;;8.40;1.13;;;12.20;99.90;;;;;;5037562;28;20029;-77
2022/08/26 09:21:10;;;;;;;4.18;1.55;;;12.20;99.90;;;;;;5039272;28;20041;-73
2022/08/26 09:23:40;;;;;;;5.50;2.30;;;12.20;99.90;;;;;;5033212;28;20017;-77
2022/08/26 09:26:26;;;;;;;4.18;1.38;;;12.20;99.90;;;;;;5032533;28;20026;-75
2022/08/26 09:29:07;;;;;;;9.98;2.63;;;12.20;99.90;;;;;;5032962;28;20025;-76
2022/08/26 09:31:37;;;;;;;8.75;1.45;;;12.20;99.90;;;;;;5033777;28;20017;-77
2022/08/26 09:34:23;;;;;;;3.63;2.08;;;12.20;99.90;;;;;;5032119;28;20028;-77
2022/08/26 09:36:56;;;;;;;6.70;1.48;;;12.20;99.90;;;;;;5029772;28;20033;-77
2022/08/26 09:39:35;;;;;;;7.93;1.48;;;12.20;99.90;;;;;;5031712;28;20379;-73
2022/08/26 09:42:21;;;;;;;6.82;2.10;;;12.20;99.90;;;;;;5033613;28;20441;-77
2022/08/26 09:44:56;;;;;;;10.35;1.63;;;12.20;99.90;;;;;;5034938;28;20036;-76
2022/08/26 09:47:45;;;;;;;4.30;1.15;;;12.20;99.90;;;;;;5031833;28;20028;-77
2022/08/26 09:50:28;;;;;;;7.78;2.60;;;12.20;99.90;;;;;;5012983;28;20116;-77
2022/08/26 09:53:18;;;;;;;10.20;1.77;;;12.10;99.90;;;;;;5031344;28;20069;-75
2022/08/26 09:55:48;;;;;;;5.13;1.50;;;12.20;99.90;;;;;;5032140;28;20563;-77
2022/08/26 09:58:33;;;;;;;5.63;1.90;;;12.20;99.90;;;;;;5029931;28;20025;-76
2022/08/26 10:01:03;;;;;;;7.38;1.10;;;12.20;99.90;;;;;;5032315;28;20025;-77
2022/08/26 10:03:35;;;;;;;2.90;1.00;;;12.20;99.90;;;;;;5031651;28;20086;-78
2022/08/26 10:06:20;;;;;;;8.63;1.23;;;12.20;99.90;;;;;;5032620;28;20108;-77
2022/08/26 10:08:51;;;;;;;3.15;1.30;;;12.20;99.90;;;;;;5032074;28;20025;-78
2022/08/26 10:11:21;;;;;;;3.50;1.58;;;12.10;99.90;;;;;;5033897;28;20021;-77
2022/08/26 10:13:57;;;;;;;4.50;1.00;;;12.10;99.90;;;;;;5032162;28;20475;-78
2022/08/26 10:16:53;;;;;;;4.55;2.15;;;12.00;99.90;;;;;;5032514;28;20040;-78
2022/08/26 10:19:25;;;;;;;3.25;1.20;;;12.00;99.90;;;;;;5035752;28;20032;-77
2022/08/26 10:21:55;;;;;;;1.50;1.00;;;12.00;99.90;;;;;;5039124;28;20037;-77
2022/08/26 10:24:46;;;;;;;3.78;1.00;;;11.90;99.90;;;;;;5037993;28;20067;-77
2022/08/26 10:27:38;;;;;;;2.63;1.25;;;11.90;99.90;;;;;;5038756;28;20029;-72
2022/08/26 10:30:12;;;;;;;3.58;1.42;;;11.90;99.90;;;;;;5040497;28;20494;-73
2022/08/26 10:33:01;;;;;;;2.03;0.90;;;11.90;99.90;;;;;;5023643;28;20055;-74
2022/08/26 10:35:30;;;;;;;6.63;1.30;;;11.80;99.90;;;;;;5034200;28;20546;-76
2022/08/26 10:38:08;;;;;;;3.97;1.23;;;11.80;99.90;;;;;;5039272;28;20029;-72
2022/08/26 10:41:03;;;;;;;2.35;1.00;;;11.80;99.90;;;;;;5035574;28;20022;-75
2022/08/26 10:43:35;;;;;;;1.90;1.00;;;11.70;99.90;;;;;;5032941;28;20017;-76
2022/08/26 10:46:13;;;;;;;2.92;1.15;;;11.70;99.90;;;;;;5033823;28;20382;-75
2022/08/26 10:49:03;;;;;;;3.95;1.05;;;11.70;99.90;;;;;;5036469;28;20025;-76
2022/08/26 10:51:41;;;;;;;2.17;1.25;;;11.60;99.90;;;;;;5034041;28;20071;-76
2022/08/26 10:54:27;;;;;;;6.55;1.73;;;11.60;99.90;;;;;;5035663;28;20041;-75
2022/08/26 10:57:04;;;;;;;10.07;2.20;;;11.50;99.90;;;;;;5036845;28;20029;-76
2022/08/26 11:00:00;;;;;;;4.53;1.88;;;11.50;99.90;;;;;;5033131;28;20025;-72
2022/08/26 11:02:44;;;;;;;4.25;1.80;;;11.50;99.90;;;;;;5030319;28;20037;-73
2022/08/26 11:05:21;;;;;;;3.42;1.45;;;11.40;99.90;;;;;;5037485;28;20112;-77
2022/08/26 11:08:20;;;;;;;4.18;1.20;;;11.50;99.90;;;;;;5048656;28;20020;-73
2022/08/26 11:10:58;;;;;;;4.25;1.35;;;11.40;99.90;;;;;;5034867;28;20496;-74
2022/08/26 11:13:59;;;;;;;3.13;1.20;;;11.40;99.90;;;;;;5037356;28;20029;-72
2022/08/26 11:16:37;;;;;;;3.17;1.45;;;11.50;99.90;;;;;;5042525;28;20042;-71
2022/08/26 11:19:05;;;;;;;3.20;1.52;;;11.40;99.90;;;;;;5045884;28;20363;-73
2022/08/26 11:21:51;;;;;;;2.40;1.40;;;11.40;99.90;;;;;;5033004;28;20040;-74
2022/08/26 11:24:59;;;;;;;11.68;2.03;;;11.40;99.90;;;;;;5033975;28;20030;-72
2022/08/26 11:27:26;;;;;;;5.80;1.55;;;11.40;99.90;;;;;;5011364;28;20479;-74
2022/08/26 11:29:59;;;;;;;2.90;1.10;;;11.50;99.90;;;;;;5033771;28;20471;-74
2022/08/26 11:32:52;;;;;;;3.45;1.42;;;11.50;99.90;;;;;;5033917;28;20045;-73
2022/08/26 11:35:19;;;;;;;5.72;1.35;;;11.50;99.90;;;;;;5035955;28;20116;-72
2022/08/26 11:38:01;;;;;;;2.83;1.30;;;11.50;99.90;;;;;;5008628;28;20029;-74
2022/08/26 11:40:32;;;;;;;5.30;1.88;;;11.60;99.90;;;;;;5016758;28;20022;-74
2022/08/26 11:43:25;;;;;;;3.70;1.38;;;11.60;99.90;;;;;;5031916;28;20029;-76
2022/08/26 11:46:07;;;;;;;3.33;1.42;;;11.60;99.90;;;;;;5031363;28;20032;-77
2022/08/26 11:48:42;;;;;;;2.70;1.50;;;11.60;99.90;;;;;;5033831;28;20363;-78
2022/08/26 11:51:20;;;;;;;2.07;1.07;;;11.60;99.90;;;;;;5016072;28;20430;-77
2022/08/26 11:53:47;;;;;;;2.45;1.20;;;11.60;99.90;;;;;;5034686;28;20079;-77
2022/08/26 11:56:35;;;;;;;2.83;1.38;;;11.70;99.90;;;;;;5034452;28;20030;-77
2022/08/26 11:59:10;;;;;;;2.25;1.75;;;11.70;99.90;;;;;;5032817;28;20045;-77
2022/08/26 12:01:43;;;;;;;3.95;1.50;;;11.70;99.90;;;;;;5035948;28;20094;-73
2022/08/26 12:04:20;;;;;;;1.88;1.60;;;11.70;99.90;;;;;;5035804;28;20018;-76
2022/08/26 12:06:50;;;;;;;1.75;1.60;;;11.70;99.90;;;;;;5035569;28;20029;-75
2022/08/26 12:09:26;;;;;;;2.85;1.33;;;11.60;99.90;;;;;;5036344;28;20021;-74
2022/08/26 12:12:13;;;;;;;5.10;2.28;;;11.60;99.90;;;;;;5034854;28;20124;-72
2022/08/26 12:14:41;;;;;;;3.95;3.10;;;11.70;99.90;;;;;;5032781;28;20104;-77
2022/08/26 12:17:18;;;;;;;4.47;3.28;;;11.70;99.90;;;;;;5034138;28;20041;-74
2022/08/26 12:19:45;;;;;;;4.95;3.15;;;11.70;99.90;;;;;;5032304;28;20517;-75
2022/08/26 12:22:24;;;;;;;3.42;3.10;;;11.70;99.90;;;;;;5036702;28;20025;-76
2022/08/26 12:25:19;;;;;;;9.52;4.15;;;11.70;99.90;;;;;;5039621;28;20087;-75
2022/08/26 12:27:47;;;;;;;5.55;3.10;;;11.70;99.90;;;;;;5034428;28;20040;-77
2022/08/26 12:30:24;;;;;;;5.38;3.70;;;11.70;99.90;;;;;;5030774;28;20025;-76
2022/08/26 12:33:03;;;;;;;3.72;2.45;;;11.70;99.90;;;;;;5032476;28;20024;-76
2022/08/26 12:35:34;;;;;;;5.45;3.40;;;11.70;99.90;;;;;;5017206;28;20486;-75
2022/08/26 12:38:03;;;;;;;11.55;2.83;;;11.70;99.90;;;;;;5043152;28;20446;-77
2022/08/26 12:40:38;;;;;;;3.17;2.53;;;11.60;99.90;;;;;;5037762;28;20025;-77
2022/08/26 12:43:07;;;;;;;3.25;2.25;;;11.60;99.90;;;;;;5040299;28;20017;-76
2022/08/26 12:45:44;;;;;;;4.25;3.28;;;11.60;99.90;;;;;;5048077;28;20017;-76
2022/08/26 12:48:21;;;;;;;4.82;3.47;;;11.60;99.90;;;;;;5035526;28;20021;-72
2022/08/26 12:50:51;;;;;;;6.13;3.88;;;11.50;99.90;;;;;;5037230;28;20033;-75
2022/08/26 12:53:24;;;;;;;8.02;3.72;;;11.50;99.90;;;;;;5040263;28;20122;-72
2022/08/26 12:55:53;;;;;;;5.97;3.10;;;11.50;99.90;;;;;;5044066;28;20029;-71
2022/08/26 12:58:30;;;;;;;9.13;2.90;;;11.50;99.90;;;;;;5027880;28;20376;-73
2022/08/26 13:01:07;;;;;;;3.00;1.75;;;11.60;99.90;;;;;;5032668;28;20052;-75
2022/08/26 13:03:37;;;;;;;3.00;1.30;;;11.60;99.90;;;;;;5033053;28;20099;-74
2022/08/26 13:06:22;;;;;;;2.13;1.20;;;11.60;99.90;;;;;;5045125;28;20104;-76
2022/08/26 13:08:52;;;;;;;3.53;1.63;;;11.50;99.90;;;;;;5046522;28;20412;-72
2022/08/26 13:11:24;;;;;;;5.90;1.73;;;11.50;99.90;;;;;;5036713;28;20033;-74
2022/08/26 13:13:56;;;;;;;3.05;1.30;;;11.60;99.90;;;;;;5042351;28;20017;-75
2022/08/26 13:16:24;;;;;;;2.88;1.63;;;11.60;99.90;;;;;;5035441;28;20099;-74
2022/08/26 13:18:55;;;;;;;3.10;1.65;;;11.60;99.90;;;;;;5033336;28;20022;-73